WXcenter Banner NOAA Logo links to NOAA website FRD Logo links to FRD website

NOAA INL CURRENT OBSERVATIONS


NOAA AIR RESOURCES LABORATORY
MESONET WEATHER CONDITIONS FOR 23-Jan-19

Towers located at INL Facilities:

                      Time  Dir/Spd  Temp  WC  RH  Pres.
Location              MST   deg/mph   (F)  (F)  %  In.Hg

ATR                  09:30  341/  4    13   6  90  25.21
CFA                  09:30  342/  7    17   6  83  25.17
CIT                  09:30  341/  9    17   6  84  25.19
INTEC                09:30  345/  4    13   6  87  25.18
MFC                  09:30  213/ 19    24  10  82  24.95
NRF                  09:30  218/  2    13  13  86  25.25
RWMC                 09:30  235/ 10    23  12  82  25.08
SMC                  09:30  280/  2    15  15  88  25.29

Other towers located inside the INL:

                      Time  Dir/Spd  Temp  WC  RH  Pres.
Location              MST   deg/mph   (F)  (F)  %  In.Hg

Base of Howe Peak    09:30  209/  2     9   9  82  25.20
Deadman Canyon       09:30   27/  7    11   1  91  24.98
Lost River           09:30    6/  6    12   3  85  25.13
Rover                09:30   30/  4    19  13  91  25.09
Sand Dunes           09:30   15/  4    15   8  86  25.28

Towers located outside the INL:

                      Time  Dir/Spd  Temp  WC  RH  Pres.
Location              MST   deg/mph   (F)  (F)  %  In.Hg

Aberdeen             09:30  197/ 14    29  18  71  25.67
Arco                 09:30  327/  3     8   2  86
Atomic City          09:30  215/ 13    25  13  83  25.09
Blackfoot            09:30  180/ 16    26  13  69  25.59
Blue Dome            09:30   73/  3    15  15  88
Cox's Well           09:30  232/ 12    22  10  85
Craters of the Moon  09:30  131/ 13    20   7  78  24.15
Dubois               09:30  120/ 12    18   5  85  24.65
Fort Hall            09:30  179/ 16    28  16  69  25.65
Hamer                09:30  160/  4    20  14  82
Howe                 09:30    2/  4     7  -1  83
Idaho Falls (REC)    09:30  201/ 14    27  16  68  25.39
Kettle Butte         09:30  218/ 25    25   9  78  24.91
Minidoka             09:30  224/  8    30  22  76  25.81
Monteview            09:30   26/  3    13   7  82  25.31
Richfield            09:30  247/ 12    27  17  90  25.75
Roberts              09:30  190/ 16    24  11  78
Sugar City           09:30  189/ 11    24  13  72  25.21
Taber                09:30  199/ 18    25  12  78
Terreton             09:30  325/  1    15  15  88  25.32

Updated every 5 minutes. Unreviewed data; maintenance may cause some errors.
Current conditions: 526-8884   Info: 526-2744
            

This page automatically refreshes every 5 minutes.


Modified: March 1, 2011
Dept. of Commerce |  NOAA |  NOAA Research |  ARL |  FRD Privacy |  Disclaimer |  Information Quality |  webmaster